Time,TemperatureF,DewpointF,PressureIn,WindDirection,WindDirectionDegrees,WindSpeedMPH,WindSpeedGustMPH,Humidity,HourlyPrecipIn,Conditions,Clouds,dailyrainin,SoftwareType,DateUTC
2013-07-12 00:00:00,52.5,50.8,30.13,WSW,248,1.4,7.0,94,0.00,,,0.00,VWS V14.01,2013-07-12 04:00:00,
2013-07-12 01:00:00,52.5,50.8,30.13,WSW,248,1.4,7.0,94,0.00,,,0.00,VWS V14.01,2013-07-12 05:00:00,
2013-07-12 02:00:00,50.4,48.7,30.14,SW,225,0.0,2.8,94,0.00,,,0.00,VWS V14.01,2013-07-12 06:00:00,
2013-07-12 03:00:00,50.4,48.7,30.14,SW,225,0.0,2.8,94,0.00,,,0.00,VWS V14.01,2013-07-12 07:00:00,
2013-07-12 04:00:00,51.1,49.7,30.15,SW,225,0.0,4.2,95,0.00,,,0.00,VWS V14.01,2013-07-12 08:00:00,
2013-07-12 05:00:00,51.1,49.7,30.15,SW,225,0.0,4.2,95,0.00,,,0.00,VWS V14.01,2013-07-12 09:00:00,
2013-07-12 06:00:00,47.7,46.6,30.18,SW,225,0.0,1.4,96,0.00,,,0.00,VWS V14.01,2013-07-12 10:00:00,
2013-07-12 07:00:00,47.7,46.6,30.18,SW,225,0.0,1.4,96,0.00,,,0.00,VWS V14.01,2013-07-12 11:00:00,
2013-07-12 08:00:00,58.4,54.9,30.20,SSW,202,1.4,4.2,88,0.00,,,0.00,VWS V14.01,2013-07-12 12:00:00,
2013-07-12 09:00:00,58.4,54.9,30.20,SSW,202,1.4,4.2,88,0.00,,,0.00,VWS V14.01,2013-07-12 13:00:00,
2013-07-12 10:00:00,71.4,59.9,30.21,SSE,158,4.2,11.2,67,0.00,,,0.00,VWS V14.01,2013-07-12 14:00:00,
2013-07-12 11:00:00,71.4,59.9,30.21,SSE,158,4.2,11.2,67,0.00,,,0.00,VWS V14.01,2013-07-12 15:00:00,
2013-07-12 12:00:00,77.7,56.5,30.20,SSE,158,7.0,21.0,48,0.00,,,0.00,VWS V14.01,2013-07-12 16:00:00,
2013-07-12 13:00:00,77.7,56.5,30.20,SSE,158,7.0,21.0,48,0.00,,,0.00,VWS V14.01,2013-07-12 17:00:00,
2013-07-12 14:00:00,80.5,56.0,30.17,SSE,158,8.4,19.6,43,0.00,,,0.00,VWS V14.01,2013-07-12 18:00:00,
2013-07-12 15:00:00,80.5,56.0,30.17,SSE,158,8.4,19.6,43,0.00,,,0.00,VWS V14.01,2013-07-12 19:00:00,
2013-07-12 16:00:00,83.0,56.2,30.16,SSE,158,8.4,19.6,40,0.00,,,0.00,VWS V14.01,2013-07-12 20:00:00,
2013-07-12 17:00:00,83.0,56.2,30.16,SSE,158,8.4,19.6,40,0.00,,,0.00,VWS V14.01,2013-07-12 21:00:00,
2013-07-12 18:00:00,82.7,59.2,30.15,SSE,158,7.0,16.8,45,0.00,,,0.00,VWS V14.01,2013-07-12 22:00:00,
2013-07-12 19:00:00,82.7,59.2,30.15,SSE,158,7.0,16.8,45,0.00,,,0.00,VWS V14.01,2013-07-12 23:00:00,
2013-07-12 20:00:00,79.0,60.4,30.15,SSE,158,7.0,16.8,53,0.00,,,0.00,VWS V14.01,2013-07-13 00:00:00,
2013-07-12 21:00:00,79.0,60.4,30.15,SSE,158,7.0,16.8,53,0.00,,,0.00,VWS V14.01,2013-07-13 01:00:00,
2013-07-12 22:00:00,68.9,57.5,30.17,South,180,4.2,12.6,67,0.00,,,0.00,VWS V14.01,2013-07-13 02:00:00,
2013-07-12 23:00:00,68.9,57.5,30.17,South,180,4.2,12.6,67,0.00,,,0.00,VWS V14.01,2013-07-13 03:00:00,